createdAt,value
2023-05-14T00:01:23.798Z,75.43
2023-05-14T00:03:50.880Z,75.74
2023-05-14T00:06:17.697Z,75.94
2023-05-14T00:08:44.436Z,76.08
2023-05-14T00:11:11.221Z,76.30
2023-05-14T00:13:40.909Z,76.56
2023-05-14T00:16:09.923Z,77.05
2023-05-14T00:18:36.829Z,77.37
2023-05-14T00:21:03.627Z,77.41
2023-05-14T00:23:30.411Z,77.88
2023-05-14T00:25:57.193Z,77.66
2023-05-14T00:28:23.932Z,78.04
2023-05-14T00:30:51.423Z,78.25
2023-05-14T00:33:18.175Z,78.47
2023-05-14T00:35:44.891Z,78.86
2023-05-14T00:38:16.891Z,78.90
2023-05-14T00:40:45.877Z,79.33
2023-05-14T00:43:12.606Z,79.31
2023-05-14T00:45:39.459Z,79.02
2023-05-14T00:48:06.414Z,79.10
2023-05-14T00:50:34.679Z,79.01
2023-05-14T00:53:01.524Z,79.23
2023-05-14T00:55:30.270Z,79.19
2023-05-14T00:57:59.150Z,79.25
2023-05-14T01:00:26.243Z,79.18
2023-05-14T01:02:53.162Z,79.03
2023-05-14T01:05:20.266Z,79.34
2023-05-14T01:08:06.849Z,79.03
2023-05-14T01:10:45.939Z,78.86
2023-05-14T01:13:39.071Z,78.70
2023-05-14T01:16:09.036Z,78.13
2023-05-14T01:18:36.258Z,78.15
2023-05-14T01:21:03.091Z,77.85
2023-05-14T01:23:29.902Z,78.08
2023-05-14T01:25:56.679Z,77.76
2023-05-14T01:28:32.815Z,77.77
2023-05-14T01:31:06.972Z,77.03
2023-05-14T01:33:35.816Z,76.96
2023-05-14T01:36:03.554Z,77.04
2023-05-14T01:38:34.408Z,77.13
2023-05-14T01:41:02.311Z,76.82
2023-05-14T01:43:30.095Z,76.89
2023-05-14T01:45:57.159Z,77.03
2023-05-14T01:48:25.301Z,77.04
2023-05-14T01:50:52.457Z,76.58
2023-05-14T01:53:19.208Z,76.50
2023-05-14T01:55:48.568Z,76.71
2023-05-14T01:58:15.307Z,77.28
2023-05-14T02:00:42.078Z,77.19
2023-05-14T02:03:08.996Z,77.05
2023-05-14T02:05:35.996Z,76.41
2023-05-14T02:08:02.763Z,76.31
2023-05-14T02:10:29.573Z,76.54
2023-05-14T02:12:56.420Z,76.75
2023-05-14T02:15:23.224Z,77.76
2023-05-14T02:17:50.102Z,78.55
2023-05-14T02:20:18.103Z,78.62
2023-05-14T02:22:48.556Z,79.29
2023-05-14T02:25:17.714Z,79.20
2023-05-14T02:27:44.886Z,79.37
2023-05-14T02:30:12.688Z,79.22
2023-05-14T02:32:39.512Z,79.19
2023-05-14T02:35:07.169Z,79.06
2023-05-14T02:37:34.855Z,79.04
2023-05-14T02:40:01.881Z,78.91
2023-05-14T02:42:29.064Z,79.14
2023-05-14T02:44:56.485Z,79.19
2023-05-14T02:47:23.299Z,79.55
2023-05-14T02:49:50.192Z,79.55
2023-05-14T02:52:17.037Z,80.11
2023-05-14T02:54:43.793Z,80.32
2023-05-14T02:57:10.632Z,79.95
2023-05-14T02:59:40.354Z,79.83
2023-05-14T03:02:07.803Z,79.61
2023-05-14T03:04:35.141Z,79.84
2023-05-14T03:07:01.951Z,79.76
2023-05-14T03:09:28.890Z,79.83
2023-05-14T03:11:55.836Z,79.91
2023-05-14T03:14:22.686Z,79.95
2023-05-14T03:16:50.153Z,79.77
2023-05-14T03:19:18.073Z,80.13
2023-05-14T03:21:45.740Z,79.65
2023-05-14T03:24:12.474Z,79.85
2023-05-14T03:26:39.197Z,79.77
2023-05-14T03:29:07.500Z,79.71
2023-05-14T03:31:34.624Z,79.34
2023-05-14T03:34:01.516Z,79.14
2023-05-14T03:36:28.450Z,79.18
2023-05-14T03:38:55.194Z,78.86
2023-05-14T03:41:22.965Z,78.68
2023-05-14T03:43:49.952Z,78.28
2023-05-14T03:46:16.683Z,78.48
2023-05-14T03:48:43.635Z,78.40
2023-05-14T03:51:10.627Z,78.65
2023-05-14T03:53:38.597Z,79.04
2023-05-14T03:56:06.804Z,79.76
2023-05-14T03:58:33.641Z,80.06
2023-05-14T04:01:00.688Z,79.64
2023-05-14T04:03:27.620Z,80.09
2023-05-14T04:05:54.513Z,80.06
2023-05-14T04:08:22.168Z,80.55
2023-05-14T04:10:52.323Z,80.65
2023-05-14T04:13:19.110Z,80.74
2023-05-14T04:15:45.960Z,80.67
2023-05-14T04:18:13.586Z,80.29
2023-05-14T04:20:40.766Z,80.45
2023-05-14T04:23:09.877Z,80.17
2023-05-14T04:25:36.626Z,80.09
2023-05-14T04:28:03.473Z,79.65
2023-05-14T04:30:32.742Z,79.85
2023-05-14T04:32:59.577Z,79.60
2023-05-14T04:35:26.468Z,79.44
2023-05-14T04:37:53.446Z,79.21
2023-05-14T04:40:20.420Z,78.84
2023-05-14T04:42:47.201Z,78.87
2023-05-14T04:45:14.569Z,78.39
2023-05-14T04:47:41.854Z,78.05
2023-05-14T04:50:09.976Z,77.26
2023-05-14T04:52:36.780Z,76.96
2023-05-14T04:55:03.691Z,76.70
2023-05-14T04:57:33.077Z,76.21
2023-05-14T04:59:59.833Z,76.33
2023-05-14T05:02:26.688Z,76.16
2023-05-14T05:04:53.530Z,76.02
2023-05-14T05:07:20.538Z,75.67
2023-05-14T05:09:47.692Z,75.30
2023-05-14T05:12:14.473Z,75.43
2023-05-14T05:14:41.215Z,75.43
2023-05-14T05:17:08.301Z,75.40
2023-05-14T05:19:43.895Z,74.92
2023-05-14T05:22:11.530Z,74.86
2023-05-14T05:24:38.340Z,77.37
2023-05-14T05:27:06.140Z,78.05
2023-05-14T05:29:33.060Z,74.27
2023-05-14T05:31:59.929Z,74.67
2023-05-14T05:34:27.068Z,73.24
2023-05-14T05:36:55.298Z,72.86
2023-05-14T05:39:31.478Z,72.43
2023-05-14T05:41:58.191Z,72.02
2023-05-14T05:44:24.996Z,71.82
2023-05-14T05:46:51.785Z,72.26
2023-05-14T05:49:18.555Z,71.88
2023-05-14T05:51:45.346Z,71.98
2023-05-14T05:54:12.136Z,72.24
2023-05-14T05:56:38.867Z,71.97
2023-05-14T05:59:06.979Z,71.49
2023-05-14T06:01:33.879Z,70.93
2023-05-14T06:04:00.717Z,70.75
2023-05-14T06:06:28.598Z,70.50
2023-05-14T06:08:55.443Z,70.00
2023-05-14T06:11:22.336Z,70.02
2023-05-14T06:13:49.159Z,70.11
2023-05-14T06:16:16.038Z,70.44
2023-05-14T06:18:42.865Z,70.74
2023-05-14T06:21:09.699Z,70.55
2023-05-14T06:23:36.826Z,70.35
2023-05-14T06:26:03.570Z,69.85
2023-05-14T06:28:30.354Z,69.51
2023-05-14T06:30:57.131Z,69.50
2023-05-14T06:33:30.649Z,69.04
2023-05-14T06:35:59.943Z,69.16
2023-05-14T06:38:27.051Z,68.61
2023-05-14T06:40:53.822Z,68.37
2023-05-14T06:43:20.974Z,68.10
2023-05-14T06:45:51.809Z,68.23
2023-05-14T06:48:19.458Z,68.61
2023-05-14T06:50:47.964Z,68.44
2023-05-14T06:53:15.469Z,68.75
2023-05-14T06:55:42.296Z,68.94
2023-05-14T06:58:09.682Z,68.97
2023-05-14T07:00:36.480Z,69.06
2023-05-14T07:03:03.317Z,68.73
2023-05-14T07:05:30.181Z,68.26
2023-05-14T07:07:57.012Z,67.67
2023-05-14T07:10:24.304Z,67.15
2023-05-14T07:12:51.162Z,67.13
2023-05-14T07:15:17.991Z,66.85
2023-05-14T07:17:45.379Z,66.71
2023-05-14T07:20:12.957Z,66.63
2023-05-14T07:22:39.692Z,66.46
2023-05-14T07:25:06.786Z,66.79
2023-05-14T07:27:33.520Z,65.79
2023-05-14T07:30:00.246Z,65.57
2023-05-14T07:32:27.048Z,65.36
2023-05-14T07:34:53.797Z,65.03
2023-05-14T07:37:24.004Z,65.24
2023-05-14T07:39:51.106Z,64.26
2023-05-14T07:42:31.670Z,64.20
2023-05-14T07:44:59.017Z,64.54
2023-05-14T07:47:26.053Z,64.50
2023-05-14T07:49:56.597Z,64.11
2023-05-14T07:52:24.054Z,64.43
2023-05-14T07:54:52.091Z,64.52
2023-05-14T07:57:19.815Z,64.31
2023-05-14T07:59:47.846Z,63.83
2023-05-14T08:02:16.034Z,63.36
2023-05-14T08:04:43.087Z,63.42
2023-05-14T08:07:09.924Z,62.71
2023-05-14T08:09:36.849Z,62.59
2023-05-14T08:12:04.121Z,62.37
2023-05-14T08:14:30.954Z,61.68
2023-05-14T08:16:57.701Z,61.18
2023-05-14T08:19:24.724Z,60.20
2023-05-14T08:21:51.564Z,60.32
2023-05-14T08:24:19.058Z,58.48
2023-05-14T08:26:45.866Z,58.67
2023-05-14T08:29:14.068Z,58.31
2023-05-14T08:31:42.943Z,57.99
2023-05-14T08:34:09.737Z,57.46
2023-05-14T08:36:36.678Z,56.80
2023-05-14T08:39:03.535Z,56.56
2023-05-14T08:41:30.416Z,56.18
2023-05-14T08:44:19.337Z,54.96
2023-05-14T08:46:46.753Z,54.78
2023-05-14T08:49:37.821Z,54.56
2023-05-14T08:52:05.025Z,53.53
2023-05-14T08:54:32.566Z,53.59
2023-05-14T08:56:59.610Z,52.88
2023-05-14T08:59:26.742Z,52.47
2023-05-14T09:01:56.140Z,52.83
2023-05-14T09:04:25.083Z,52.72
2023-05-14T09:06:55.633Z,51.35
2023-05-14T09:09:23.449Z,52.06
2023-05-14T09:11:51.900Z,50.21
2023-05-14T09:14:19.408Z,49.82
2023-05-14T09:16:48.179Z,49.64
2023-05-14T09:19:15.916Z,48.39
2023-05-14T09:21:45.592Z,51.82
2023-05-14T09:24:26.862Z,48.83
2023-05-14T09:26:55.018Z,47.77
2023-05-14T09:29:21.993Z,47.74
2023-05-14T09:31:50.730Z,53.60
2023-05-14T09:34:34.380Z,47.98
2023-05-14T09:37:04.048Z,47.30
2023-05-14T09:39:32.036Z,47.10
2023-05-14T09:41:59.274Z,46.97
2023-05-14T09:44:26.454Z,51.55
2023-05-14T09:46:54.352Z,52.36
2023-05-14T09:49:21.523Z,51.95
2023-05-14T09:51:49.584Z,54.10
2023-05-14T09:54:16.466Z,53.94
2023-05-14T09:56:44.129Z,55.31
2023-05-14T09:59:11.480Z,51.07
2023-05-14T10:01:38.866Z,53.79
2023-05-14T10:04:08.156Z,51.00
2023-05-14T10:06:39.551Z,51.57
2023-05-14T10:09:13.670Z,50.40
2023-05-14T10:11:44.464Z,51.32
2023-05-14T10:14:20.855Z,51.86
2023-05-14T10:16:50.573Z,49.57
2023-05-14T10:19:20.136Z,48.93
2023-05-14T10:21:57.458Z,50.18
2023-05-14T10:24:24.909Z,48.79
2023-05-14T10:26:52.387Z,49.47
2023-05-14T10:29:19.205Z,48.24
2023-05-14T10:31:55.818Z,48.96
2023-05-14T10:34:45.974Z,48.68
2023-05-14T10:37:30.922Z,49.53
2023-05-14T10:39:57.716Z,49.88
2023-05-14T10:42:27.686Z,49.79
2023-05-14T10:44:58.633Z,48.97
2023-05-14T10:47:29.506Z,49.73
2023-05-14T10:49:58.080Z,50.14
2023-05-14T10:52:26.894Z,49.89
2023-05-14T10:54:56.213Z,50.23
2023-05-14T10:57:26.392Z,50.06
2023-05-14T10:59:55.182Z,51.04
2023-05-14T11:02:39.541Z,51.19
2023-05-14T11:05:15.783Z,51.64
2023-05-14T11:07:42.916Z,51.49
2023-05-14T11:10:15.398Z,51.27
2023-05-14T11:12:45.950Z,50.71
2023-05-14T11:15:15.896Z,50.46
2023-05-14T11:17:45.185Z,50.93
2023-05-14T11:20:12.901Z,50.64
2023-05-14T11:22:41.090Z,49.80
2023-05-14T11:25:09.240Z,49.91
2023-05-14T11:27:38.255Z,49.81
2023-05-14T11:30:06.655Z,50.53
2023-05-14T11:32:34.008Z,49.77
2023-05-14T11:35:00.948Z,50.13
2023-05-14T11:37:27.733Z,49.83
2023-05-14T11:39:55.955Z,49.80
2023-05-14T11:42:23.775Z,49.59
2023-05-14T11:44:52.666Z,49.15
2023-05-14T11:47:21.008Z,49.10
2023-05-14T11:49:48.946Z,48.05
2023-05-14T11:52:19.430Z,47.53
2023-05-14T11:54:47.098Z,46.96
2023-05-14T11:57:17.216Z,48.25
2023-05-14T11:59:44.567Z,47.98
2023-05-14T12:02:13.323Z,49.28
2023-05-14T12:04:42.273Z,48.62
2023-05-14T12:07:14.864Z,48.81
2023-05-14T12:09:49.055Z,48.25
2023-05-14T12:12:22.890Z,49.21
2023-05-14T12:14:51.065Z,49.19
2023-05-14T12:17:20.059Z,49.55
2023-05-14T12:19:51.795Z,48.68
2023-05-14T12:22:21.266Z,50.75
2023-05-14T12:25:00.262Z,50.13
2023-05-14T12:27:28.870Z,50.42
2023-05-14T12:30:13.072Z,49.96
2023-05-14T12:32:48.951Z,50.49
2023-05-14T12:35:15.910Z,50.63
2023-05-14T12:37:43.032Z,50.37
2023-05-14T12:40:10.241Z,50.28
2023-05-14T12:42:37.606Z,49.83
2023-05-14T12:45:08.025Z,50.21
2023-05-14T12:47:36.277Z,49.89
2023-05-14T12:50:03.669Z,49.97
2023-05-14T12:52:37.762Z,50.30
2023-05-14T12:55:06.900Z,51.05
2023-05-14T12:57:35.638Z,50.54
2023-05-14T13:00:07.057Z,50.66
2023-05-14T13:02:43.117Z,50.53
2023-05-14T13:05:14.148Z,50.45
2023-05-14T13:07:41.222Z,50.98
2023-05-14T13:10:08.705Z,51.86
2023-05-14T13:12:35.574Z,53.53
2023-05-14T13:15:02.474Z,54.63
2023-05-14T13:17:29.429Z,53.82
2023-05-14T13:19:56.321Z,54.41
2023-05-14T13:22:23.097Z,55.61
2023-05-14T13:24:49.945Z,56.88
2023-05-14T13:27:16.760Z,56.99
2023-05-14T13:29:43.572Z,57.64
2023-05-14T13:32:10.366Z,58.98
2023-05-14T13:34:37.183Z,59.49
2023-05-14T13:37:04.191Z,61.43
2023-05-14T13:39:31.000Z,61.51
2023-05-14T13:41:58.006Z,62.81
2023-05-14T13:44:24.871Z,62.92
2023-05-14T13:46:51.738Z,63.00
2023-05-14T13:49:18.846Z,64.14
2023-05-14T13:51:45.794Z,63.80
2023-05-14T13:54:12.619Z,63.75
2023-05-14T13:56:39.380Z,63.87
2023-05-14T13:59:06.407Z,64.95
2023-05-14T14:01:33.340Z,64.58
2023-05-14T14:04:00.451Z,62.36
2023-05-14T14:06:27.565Z,61.29
2023-05-14T14:08:54.395Z,60.29
2023-05-14T14:11:21.960Z,59.65
2023-05-14T14:13:49.004Z,60.62
2023-05-14T14:16:16.342Z,61.72
2023-05-14T14:18:43.482Z,62.13
2023-05-14T14:21:10.726Z,62.17
2023-05-14T14:23:37.609Z,60.11
2023-05-14T14:26:04.449Z,59.18
2023-05-14T14:28:31.376Z,58.95
2023-05-14T14:30:58.258Z,57.87
2023-05-14T14:33:25.523Z,59.35
2023-05-14T14:35:52.988Z,57.23
2023-05-14T14:38:19.892Z,57.41
2023-05-14T14:40:46.928Z,55.72
2023-05-14T14:43:13.639Z,57.29
2023-05-14T14:45:40.520Z,51.72
2023-05-14T14:48:22.647Z,51.13
2023-05-14T14:50:49.405Z,51.71
2023-05-14T14:53:16.201Z,51.33
2023-05-14T14:55:43.016Z,49.26
2023-05-14T14:58:09.747Z,49.85
2023-05-14T15:00:36.610Z,49.74
2023-05-14T15:03:03.538Z,49.14
2023-05-14T15:05:30.485Z,49.72
2023-05-14T15:07:57.249Z,50.18
2023-05-14T15:10:24.135Z,48.50
2023-05-14T15:12:51.094Z,48.29
2023-05-14T15:15:17.847Z,47.50
2023-05-14T15:17:44.601Z,47.56
2023-05-14T15:20:12.185Z,48.25
2023-05-14T15:22:39.746Z,48.75
2023-05-14T15:25:06.681Z,49.42
2023-05-14T15:27:33.417Z,49.36
2023-05-14T15:30:00.203Z,49.49
2023-05-14T15:32:28.472Z,49.06
2023-05-14T15:34:55.938Z,49.24
2023-05-14T15:37:24.901Z,46.90
2023-05-14T15:39:51.794Z,47.07
2023-05-14T15:42:20.873Z,47.23
2023-05-14T15:44:47.661Z,47.53
2023-05-14T15:47:14.522Z,47.17
2023-05-14T15:49:41.218Z,46.44
2023-05-14T15:52:08.028Z,45.83
2023-05-14T15:54:34.782Z,45.77
2023-05-14T15:57:01.702Z,46.52
2023-05-14T15:59:28.613Z,47.38
2023-05-14T16:01:57.648Z,49.94
2023-05-14T16:04:25.190Z,49.99
2023-05-14T16:06:54.019Z,51.97
2023-05-14T16:09:20.728Z,51.63
2023-05-14T16:11:47.533Z,50.24
2023-05-14T16:14:14.231Z,50.32
2023-05-14T16:16:41.138Z,49.91
2023-05-14T16:19:08.028Z,49.99
2023-05-14T16:21:34.977Z,50.60
2023-05-14T16:24:06.029Z,52.36
2023-05-14T16:26:33.235Z,54.87
2023-05-14T16:28:59.936Z,56.15
2023-05-14T16:31:26.743Z,56.36
2023-05-14T16:33:54.251Z,56.33
2023-05-14T16:36:21.278Z,56.29
2023-05-14T16:39:06.188Z,55.73
2023-05-14T16:41:35.400Z,54.88
2023-05-14T16:44:02.265Z,55.11
2023-05-14T16:46:29.639Z,55.18
2023-05-14T16:48:56.762Z,55.77
2023-05-14T16:51:23.592Z,56.24
2023-05-14T16:53:51.516Z,56.55
2023-05-14T16:56:18.989Z,56.57
2023-05-14T16:58:45.723Z,56.49
2023-05-14T17:01:12.514Z,56.03
2023-05-14T17:03:39.433Z,54.83
2023-05-14T17:06:07.053Z,54.52
2023-05-14T17:08:35.654Z,54.16
2023-05-14T17:11:05.718Z,54.18
2023-05-14T17:13:33.208Z,53.95
2023-05-14T17:16:01.059Z,54.57
2023-05-14T17:18:28.477Z,54.38
2023-05-14T17:20:55.517Z,52.81
2023-05-14T17:23:22.222Z,52.50
2023-05-14T17:25:51.237Z,51.90
2023-05-14T17:28:17.983Z,51.50
2023-05-14T17:30:44.891Z,51.33
2023-05-14T17:33:11.825Z,51.73
2023-05-14T17:35:38.897Z,52.00
2023-05-14T17:38:05.747Z,52.79
2023-05-14T17:40:33.539Z,52.64
2023-05-14T17:43:00.713Z,53.57
2023-05-14T17:45:28.589Z,54.04
2023-05-14T17:47:57.533Z,53.84
2023-05-14T17:50:24.261Z,53.87
2023-05-14T17:52:51.065Z,53.50
2023-05-14T17:55:19.164Z,54.28
2023-05-14T17:57:46.335Z,54.30
2023-05-14T18:00:13.419Z,54.25
2023-05-14T18:02:40.633Z,55.19
2023-05-14T18:05:07.727Z,55.30
2023-05-14T18:07:35.739Z,55.36
2023-05-14T18:10:02.888Z,55.77
2023-05-14T18:12:29.658Z,55.88
2023-05-14T18:14:56.474Z,55.65
2023-05-14T18:17:23.412Z,56.14
2023-05-14T18:19:50.236Z,57.12
2023-05-14T18:22:17.050Z,58.02
2023-05-14T18:24:44.443Z,59.29
2023-05-14T18:27:11.515Z,59.74
2023-05-14T18:29:38.518Z,60.13
2023-05-14T18:32:05.845Z,60.56
2023-05-14T18:34:32.579Z,60.44
2023-05-14T18:36:59.493Z,62.38
2023-05-14T18:39:26.239Z,63.18
2023-05-14T18:41:53.069Z,63.48
2023-05-14T18:44:19.864Z,63.74
2023-05-14T18:46:46.857Z,63.63
2023-05-14T18:49:13.674Z,63.50
2023-05-14T18:51:41.860Z,63.18
2023-05-14T18:54:08.601Z,62.73
2023-05-14T18:56:37.069Z,62.30
2023-05-14T18:59:04.400Z,62.40
2023-05-14T19:01:31.491Z,61.82
2023-05-14T19:03:58.440Z,61.59
2023-05-14T19:06:26.021Z,61.54
2023-05-14T19:08:52.822Z,61.15
2023-05-14T19:11:19.609Z,60.11
2023-05-14T19:13:48.964Z,59.11
2023-05-14T19:16:16.322Z,59.56
2023-05-14T19:18:43.352Z,59.64
2023-05-14T19:21:10.179Z,59.71
2023-05-14T19:23:36.981Z,59.98
2023-05-14T19:26:04.126Z,60.37
2023-05-14T19:28:30.826Z,60.85
2023-05-14T19:30:57.667Z,61.96
2023-05-14T19:33:25.897Z,63.72
2023-05-14T19:35:52.810Z,64.36
2023-05-14T19:38:19.821Z,63.45
2023-05-14T19:40:46.633Z,65.88
2023-05-14T19:43:13.653Z,66.60
2023-05-14T19:45:42.776Z,66.48
2023-05-14T19:48:09.642Z,66.31
2023-05-14T19:50:37.144Z,66.42
2023-05-14T19:53:04.646Z,67.01
2023-05-14T19:55:31.423Z,66.86
2023-05-14T19:57:58.141Z,67.48
2023-05-14T20:00:25.100Z,68.00
2023-05-14T20:02:52.125Z,68.02
2023-05-14T20:05:19.022Z,67.38
2023-05-14T20:07:48.906Z,67.78
2023-05-14T20:10:15.679Z,68.02
2023-05-14T20:12:42.457Z,68.91
2023-05-14T20:15:09.593Z,68.67
2023-05-14T20:17:38.039Z,69.08
2023-05-14T20:20:06.857Z,69.61
2023-05-14T20:22:33.577Z,69.95
2023-05-14T20:25:00.326Z,70.20
2023-05-14T20:27:27.158Z,69.09
2023-05-14T20:29:54.257Z,67.70
2023-05-14T20:32:24.856Z,68.03
2023-05-14T20:34:52.040Z,66.75
2023-05-14T20:37:19.949Z,66.88
2023-05-14T20:39:46.850Z,67.27
2023-05-14T20:42:13.641Z,66.50
2023-05-14T20:44:40.463Z,67.67
2023-05-14T20:47:07.514Z,67.92
2023-05-14T20:49:34.304Z,68.03
2023-05-14T20:52:01.106Z,68.38
2023-05-14T20:54:27.829Z,67.90
2023-05-14T20:56:54.597Z,68.54
2023-05-14T20:59:21.378Z,70.19
2023-05-14T21:01:48.166Z,70.37
2023-05-14T21:04:15.280Z,70.62
2023-05-14T21:06:42.258Z,69.52
2023-05-14T21:09:09.023Z,68.82
2023-05-14T21:11:35.739Z,69.71
2023-05-14T21:14:02.497Z,69.93
2023-05-14T21:16:30.595Z,69.87
2023-05-14T21:18:57.544Z,69.12
2023-05-14T21:21:24.436Z,69.60
2023-05-14T21:23:51.168Z,70.13
2023-05-14T21:26:18.055Z,69.77
2023-05-14T21:28:44.824Z,70.08
2023-05-14T21:31:11.614Z,70.34
2023-05-14T21:33:38.433Z,70.36
2023-05-14T21:36:05.610Z,70.05
2023-05-14T21:38:32.573Z,70.17
2023-05-14T21:40:59.742Z,70.28
2023-05-14T21:43:26.930Z,70.07
2023-05-14T21:45:53.793Z,70.47
2023-05-14T21:48:21.715Z,70.52
2023-05-14T21:50:48.575Z,70.73
2023-05-14T21:53:15.421Z,70.35
2023-05-14T21:55:42.169Z,70.46
2023-05-14T21:58:09.068Z,70.28
2023-05-14T22:00:35.879Z,70.22
2023-05-14T22:03:03.101Z,71.07
2023-05-14T22:05:29.884Z,70.42
2023-05-14T22:07:56.992Z,70.53
2023-05-14T22:10:23.796Z,70.64
2023-05-14T22:12:50.544Z,70.39
2023-05-14T22:15:17.304Z,70.64
2023-05-14T22:17:44.149Z,70.93
2023-05-14T22:20:11.322Z,71.15
2023-05-14T22:22:38.687Z,71.67
2023-05-14T22:25:05.923Z,72.10
2023-05-14T22:27:32.729Z,72.12
2023-05-14T22:29:59.672Z,72.21
2023-05-14T22:32:26.538Z,72.14
2023-05-14T22:34:53.470Z,72.15
2023-05-14T22:37:20.332Z,72.48
2023-05-14T22:39:47.065Z,72.22
2023-05-14T22:42:13.809Z,72.67
2023-05-14T22:44:40.608Z,73.22
2023-05-14T22:47:07.407Z,73.66
2023-05-14T22:49:34.191Z,74.26
2023-05-14T22:52:01.357Z,74.08
2023-05-14T22:54:28.110Z,74.12
2023-05-14T22:56:54.839Z,73.94
2023-05-14T22:59:23.593Z,73.71
2023-05-14T23:01:50.943Z,73.80
2023-05-14T23:04:17.821Z,73.66
2023-05-14T23:06:44.741Z,73.58
2023-05-14T23:09:11.479Z,73.68
2023-05-14T23:11:38.326Z,73.55
2023-05-14T23:14:05.138Z,73.22
2023-05-14T23:16:32.141Z,73.36
2023-05-14T23:18:59.091Z,73.39
2023-05-14T23:21:26.018Z,74.01
2023-05-14T23:23:52.815Z,73.92
2023-05-14T23:26:19.571Z,73.91
2023-05-14T23:28:47.475Z,74.12
2023-05-14T23:31:14.369Z,74.35
2023-05-14T23:33:41.231Z,73.97
2023-05-14T23:36:08.527Z,74.53
2023-05-14T23:38:35.487Z,74.67
2023-05-14T23:41:02.584Z,74.34
2023-05-14T23:43:29.304Z,74.25
2023-05-14T23:45:56.347Z,74.66
2023-05-14T23:48:23.193Z,74.95
2023-05-14T23:50:50.082Z,74.78
2023-05-14T23:53:17.416Z,74.75
2023-05-14T23:55:44.226Z,74.30
2023-05-14T23:58:11.060Z,74.32
